Time;durP1;ratioP1;P1;durP2;ratioP2;P2;SDS_P1;SDS_P2;PMS_P1;PMS_P2;Temp;Humidity;BMP_temperature;BMP_pressure;BME280_temperature;BME280_humidity;BME280_pressure;Samples;Min_cycle;Max_cycle;Signal;HPM_P1;HPM_P2
2021/07/29 00:00:30;;;;;;;5.63;4.13;;;;;;;;;;5081658;28;20082;-47
2021/07/29 00:02:56;;;;;;;5.45;3.60;;;;;;;;;;5084633;28;20028;-49
2021/07/29 00:05:22;;;;;;;9.70;4.13;;;;;;;;;;5093152;28;20035;-49
2021/07/29 00:07:52;;;;;;;5.82;3.70;;;;;;;;;;5070215;28;20044;-48
2021/07/29 00:10:18;;;;;;;6.97;4.22;;;;;;;;;;5085209;28;20044;-48
2021/07/29 00:12:44;;;;;;;6.07;4.00;;;;;;;;;;5057082;28;20037;-48
2021/07/29 00:15:12;;;;;;;5.38;3.95;;;;;;;;;;5072542;28;20029;-48
2021/07/29 00:20:23;;;;;;;6.78;3.83;;;;;;;;;;5076867;28;20047;-49
2021/07/29 00:22:52;;;;;;;6.90;3.40;;;;;;;;;;5084555;28;20036;-47
2021/07/29 00:25:18;;;;;;;5.95;3.50;;;;;;;;;;5072572;28;20032;-47
2021/07/29 00:27:44;;;;;;;4.25;3.50;;;;;;;;;;5082024;28;20024;-47
2021/07/29 00:30:14;;;;;;;6.50;3.92;;;;;;;;;;5068943;28;20025;-47
2021/07/29 00:32:41;;;;;;;6.07;3.80;;;;;;;;;;5071923;28;20761;-49
2021/07/29 00:35:08;;;;;;;4.82;3.67;;;;;;;;;;5073782;28;20036;-49
2021/07/29 00:37:35;;;;;;;6.10;3.42;;;;;;;;;;5088892;28;20103;-50
2021/07/29 00:40:01;;;;;;;8.55;3.70;;;;;;;;;;5082985;28;20039;-51
2021/07/29 00:42:27;;;;;;;4.20;3.45;;;;;;;;;;5090951;28;20476;-50
2021/07/29 00:44:53;;;;;;;5.15;3.60;;;;;;;;;;5063569;28;20029;-49
2021/07/29 00:47:19;;;;;;;4.93;3.50;;;;;;;;;;5059197;28;20037;-49
2021/07/29 00:49:46;;;;;;;4.40;3.72;;;;;;;;;;5074746;28;20032;-51
2021/07/29 00:52:13;;;;;;;9.13;3.90;;;;;;;;;;5069869;28;20031;-47
2021/07/29 00:54:39;;;;;;;6.15;3.80;;;;;;;;;;5076018;28;20101;-51
2021/07/29 00:57:06;;;;;;;6.00;3.60;;;;;;;;;;5080247;28;20025;-47
2021/07/29 00:59:32;;;;;;;5.68;4.15;;;;;;;;;;5065077;28;20077;-48
2021/07/29 01:01:58;;;;;;;4.90;3.40;;;;;;;;;;5066167;28;20883;-50
2021/07/29 01:04:24;;;;;;;9.95;3.80;;;;;;;;;;5082159;28;20043;-50
2021/07/29 01:06:50;;;;;;;6.45;3.95;;;;;;;;;;5066762;28;20134;-51
2021/07/29 01:09:16;;;;;;;4.95;3.45;;;;;;;;;;5082773;28;20114;-50
2021/07/29 01:11:43;;;;;;;5.78;4.07;;;;;;;;;;5080806;28;20051;-55
2021/07/29 01:14:09;;;;;;;6.72;3.60;;;;;;;;;;5078355;28;20103;-56
2021/07/29 01:16:35;;;;;;;6.20;3.55;;;;;;;;;;5061908;28;20110;-56
2021/07/29 01:19:02;;;;;;;4.47;3.63;;;;;;;;;;5058577;28;20522;-54
2021/07/29 01:21:29;;;;;;;4.13;3.30;;;;;;;;;;5079932;28;20020;-50
2021/07/29 01:23:55;;;;;;;5.15;3.85;;;;;;;;;;5088548;28;20034;-50
2021/07/29 01:26:21;;;;;;;4.55;3.55;;;;;;;;;;5076763;28;20414;-52
2021/07/29 01:28:47;;;;;;;5.88;3.83;;;;;;;;;;5066934;28;20033;-51
2021/07/29 01:31:13;;;;;;;4.80;3.42;;;;;;;;;;5082312;28;20024;-50
2021/07/29 01:33:40;;;;;;;8.27;3.70;;;;;;;;;;5084593;28;20032;-50
2021/07/29 01:36:06;;;;;;;4.65;3.50;;;;;;;;;;5067762;28;20446;-50
2021/07/29 01:38:32;;;;;;;4.53;3.38;;;;;;;;;;5085183;28;20038;-51
2021/07/29 01:40:58;;;;;;;5.65;3.95;;;;;;;;;;5069863;28;20028;-51
2021/07/29 01:43:25;;;;;;;6.18;3.90;;;;;;;;;;5072963;28;20032;-50
2021/07/29 01:45:51;;;;;;;4.85;3.75;;;;;;;;;;5062117;28;20033;-52
2021/07/29 01:48:17;;;;;;;6.53;3.75;;;;;;;;;;5064650;28;20029;-54
2021/07/29 01:50:43;;;;;;;5.30;3.33;;;;;;;;;;5084192;28;20468;-53
2021/07/29 01:53:10;;;;;;;6.13;3.40;;;;;;;;;;5082332;28;20013;-53
2021/07/29 01:55:35;;;;;;;4.95;3.47;;;;;;;;;;5054997;28;20441;-52
2021/07/29 01:58:01;;;;;;;7.35;3.63;;;;;;;;;;5054344;28;20033;-53
2021/07/29 02:00:27;;;;;;;6.18;3.17;;;;;;;;;;5069792;28;20507;-50
2021/07/29 02:02:53;;;;;;;5.30;3.53;;;;;;;;;;5065189;28;20469;-51
2021/07/29 02:05:19;;;;;;;4.15;3.60;;;;;;;;;;5084219;28;20478;-49
2021/07/29 02:07:45;;;;;;;4.68;3.60;;;;;;;;;;5093282;28;20063;-51
2021/07/29 02:10:11;;;;;;;6.65;3.35;;;;;;;;;;5094195;28;20052;-51
2021/07/29 02:12:39;;;;;;;5.97;4.13;;;;;;;;;;5080444;28;20056;-51
2021/07/29 02:15:05;;;;;;;5.15;3.70;;;;;;;;;;5080017;28;20510;-50
2021/07/29 02:17:31;;;;;;;7.72;3.95;;;;;;;;;;5071285;28;20029;-54
2021/07/29 02:19:57;;;;;;;4.80;3.40;;;;;;;;;;5066359;28;20021;-51
2021/07/29 02:22:23;;;;;;;6.13;4.10;;;;;;;;;;5063765;28;20032;-51
2021/07/29 02:24:49;;;;;;;6.47;3.78;;;;;;;;;;5069296;28;20040;-54
2021/07/29 02:27:15;;;;;;;5.50;4.22;;;;;;;;;;5071345;28;20029;-51
2021/07/29 02:29:42;;;;;;;6.40;3.80;;;;;;;;;;5063770;28;20025;-53
2021/07/29 02:32:08;;;;;;;5.63;3.58;;;;;;;;;;5066904;28;20028;-49
2021/07/29 02:34:34;;;;;;;5.50;3.50;;;;;;;;;;5082181;28;20047;-53
2021/07/29 02:37:00;;;;;;;4.10;3.30;;;;;;;;;;5087401;28;20459;-52
2021/07/29 02:39:26;;;;;;;6.10;3.20;;;;;;;;;;5079183;28;20056;-56
2021/07/29 02:41:52;;;;;;;4.25;3.50;;;;;;;;;;5073003;28;20028;-50
2021/07/29 02:44:18;;;;;;;6.93;3.72;;;;;;;;;;5071948;28;20074;-50
2021/07/29 02:46:44;;;;;;;5.35;3.58;;;;;;;;;;5062376;28;20175;-50
2021/07/29 02:49:10;;;;;;;4.97;3.75;;;;;;;;;;5069349;28;20028;-50
2021/07/29 02:51:36;;;;;;;3.92;3.42;;;;;;;;;;5082820;28;20032;-50
2021/07/29 02:54:02;;;;;;;4.03;3.28;;;;;;;;;;5078368;28;20110;-52
2021/07/29 02:56:28;;;;;;;6.07;3.58;;;;;;;;;;5067528;28;20025;-51
2021/07/29 02:58:54;;;;;;;6.97;3.72;;;;;;;;;;5073071;28;20097;-53
2021/07/29 03:01:20;;;;;;;4.18;3.28;;;;;;;;;;5068024;28;20032;-55
2021/07/29 03:03:46;;;;;;;4.20;3.47;;;;;;;;;;5073063;28;20043;-51
2021/07/29 03:06:12;;;;;;;5.18;3.47;;;;;;;;;;5064899;28;20029;-56
2021/07/29 03:08:38;;;;;;;5.15;3.28;;;;;;;;;;5083485;28;20098;-51
2021/07/29 03:11:04;;;;;;;5.00;3.53;;;;;;;;;;5083706;28;20028;-54
2021/07/29 03:13:30;;;;;;;4.75;3.50;;;;;;;;;;5091716;28;20052;-50
2021/07/29 03:15:56;;;;;;;5.32;3.40;;;;;;;;;;5068733;28;20029;-52
2021/07/29 03:18:22;;;;;;;4.00;3.40;;;;;;;;;;5075059;28;20772;-51
2021/07/29 03:20:48;;;;;;;4.32;3.20;;;;;;;;;;5073658;28;20033;-49
2021/07/29 03:23:14;;;;;;;6.25;3.20;;;;;;;;;;5066720;28;20035;-51
2021/07/29 03:25:40;;;;;;;5.78;3.05;;;;;;;;;;5074181;28;20036;-50
2021/07/29 03:28:06;;;;;;;4.82;3.22;;;;;;;;;;5068364;28;20025;-49
2021/07/29 03:30:32;;;;;;;4.97;3.50;;;;;;;;;;5060462;28;20465;-51
2021/07/29 03:33:00;;;;;;;4.05;2.88;;;;;;;;;;5081815;28;20021;-51
2021/07/29 03:35:26;;;;;;;7.35;3.40;;;;;;;;;;5075890;28;20488;-53
2021/07/29 03:37:52;;;;;;;4.43;3.17;;;;;;;;;;5093309;28;20032;-49
2021/07/29 03:40:18;;;;;;;6.10;3.30;;;;;;;;;;5070533;28;20032;-54
2021/07/29 03:42:44;;;;;;;4.53;3.50;;;;;;;;;;5062002;28;20112;-55
2021/07/29 03:45:10;;;;;;;5.30;3.22;;;;;;;;;;5069651;28;20029;-54
2021/07/29 03:47:36;;;;;;;3.78;3.13;;;;;;;;;;5061182;28;20371;-51
2021/07/29 03:50:02;;;;;;;4.15;2.70;;;;;;;;;;5068427;28;20033;-49
2021/07/29 03:52:28;;;;;;;4.03;2.70;;;;;;;;;;5093499;28;20035;-51
2021/07/29 03:54:54;;;;;;;5.07;3.22;;;;;;;;;;5073535;28;20036;-50
2021/07/29 03:57:23;;;;;;;6.22;3.38;;;;;;;;;;5056478;28;20028;-49
2021/07/29 03:59:49;;;;;;;5.13;2.90;;;;;;;;;;5067186;28;20732;-50
2021/07/29 04:02:15;;;;;;;4.45;3.10;;;;;;;;;;5068496;28;20107;-50
2021/07/29 04:04:41;;;;;;;4.35;3.22;;;;;;;;;;5066416;28;20044;-51
2021/07/29 04:07:08;;;;;;;4.53;2.58;;;;;;;;;;5065925;28;20103;-50
2021/07/29 04:09:34;;;;;;;3.90;2.97;;;;;;;;;;5071157;28;20534;-49
2021/07/29 04:12:00;;;;;;;3.90;3.10;;;;;;;;;;5083191;28;20028;-53
2021/07/29 04:14:26;;;;;;;4.93;3.45;;;;;;;;;;5071604;28;20111;-51
2021/07/29 04:16:53;;;;;;;4.20;2.78;;;;;;;;;;5060091;28;20058;-53
2021/07/29 04:19:19;;;;;;;5.13;3.10;;;;;;;;;;5060270;28;20112;-52
2021/07/29 04:21:45;;;;;;;5.43;3.33;;;;;;;;;;5079703;28;20103;-50
2021/07/29 04:24:11;;;;;;;4.90;3.35;;;;;;;;;;5076169;28;20025;-51
2021/07/29 04:26:39;;;;;;;5.43;3.22;;;;;;;;;;5071427;28;20025;-51
2021/07/29 04:29:05;;;;;;;5.35;2.88;;;;;;;;;;5056444;28;20025;-52
2021/07/29 04:31:31;;;;;;;4.82;3.40;;;;;;;;;;5070116;28;20365;-53
2021/07/29 04:33:57;;;;;;;5.22;2.78;;;;;;;;;;5084823;28;20032;-51
2021/07/29 04:36:23;;;;;;;5.72;3.08;;;;;;;;;;5062838;28;20441;-51
2021/07/29 04:38:49;;;;;;;5.55;3.15;;;;;;;;;;5060486;28;20484;-52
2021/07/29 04:41:15;;;;;;;4.13;3.03;;;;;;;;;;5082217;28;20035;-51
2021/07/29 04:43:41;;;;;;;4.75;3.40;;;;;;;;;;5064558;28;20083;-52
2021/07/29 04:46:07;;;;;;;4.10;3.28;;;;;;;;;;5073860;28;20017;-55
2021/07/29 04:48:33;;;;;;;4.75;3.60;;;;;;;;;;5064551;28;20054;-55
2021/07/29 04:51:02;;;;;;;5.10;3.20;;;;;;;;;;5069545;28;20059;-54
2021/07/29 04:53:29;;;;;;;3.30;2.63;;;;;;;;;;5080907;28;20032;-50
2021/07/29 04:55:55;;;;;;;5.53;3.60;;;;;;;;;;5062697;28;20025;-51
2021/07/29 04:58:21;;;;;;;4.80;2.70;;;;;;;;;;5059939;28;20025;-52
2021/07/29 05:00:47;;;;;;;4.32;3.03;;;;;;;;;;5061127;28;20028;-54
2021/07/29 05:03:12;;;;;;;4.80;3.10;;;;;;;;;;5078015;28;20036;-53
2021/07/29 05:05:38;;;;;;;7.22;3.03;;;;;;;;;;5058151;28;20037;-54
2021/07/29 05:08:05;;;;;;;4.07;2.80;;;;;;;;;;5061167;28;20539;-51
2021/07/29 05:10:31;;;;;;;4.15;3.10;;;;;;;;;;5081233;28;20843;-49
2021/07/29 05:12:57;;;;;;;4.13;2.85;;;;;;;;;;5070097;28;20103;-52
2021/07/29 05:15:23;;;;;;;5.15;3.03;;;;;;;;;;5061830;28;20104;-50
2021/07/29 05:17:55;;;;;;;6.85;3.10;;;;;;;;;;5060987;28;20043;-51
2021/07/29 05:20:21;;;;;;;5.30;2.80;;;;;;;;;;5071651;28;20423;-51
2021/07/29 05:22:47;;;;;;;5.95;2.90;;;;;;;;;;5087528;28;20408;-50
2021/07/29 05:25:22;;;;;;;5.00;3.00;;;;;;;;;;5087566;28;20032;-55
2021/07/29 05:27:47;;;;;;;6.40;3.13;;;;;;;;;;5069787;28;20024;-54
2021/07/29 05:30:13;;;;;;;4.53;2.70;;;;;;;;;;5057333;28;20040;-54
2021/07/29 05:32:39;;;;;;;5.05;2.78;;;;;;;;;;5064138;28;20073;-54
2021/07/29 05:35:05;;;;;;;5.35;3.20;;;;;;;;;;5053560;28;20028;-51
2021/07/29 05:37:31;;;;;;;5.72;3.20;;;;;;;;;;5058766;28;20033;-52
2021/07/29 05:39:57;;;;;;;5.60;2.90;;;;;;;;;;5059316;28;20025;-49
2021/07/29 05:42:24;;;;;;;3.42;2.63;;;;;;;;;;5062991;28;20027;-53
2021/07/29 05:44:50;;;;;;;4.13;3.08;;;;;;;;;;5066454;28;20056;-49
2021/07/29 05:47:16;;;;;;;3.90;2.97;;;;;;;;;;5064014;28;20035;-50
2021/07/29 05:49:42;;;;;;;5.85;2.40;;;;;;;;;;5067656;28;20051;-50
2021/07/29 05:52:08;;;;;;;4.43;2.83;;;;;;;;;;5073336;28;20032;-49
2021/07/29 05:54:34;;;;;;;4.53;2.72;;;;;;;;;;5085516;28;20365;-50
2021/07/29 05:57:00;;;;;;;3.72;2.47;;;;;;;;;;5064045;28;20111;-54
2021/07/29 05:59:26;;;;;;;8.07;2.60;;;;;;;;;;5078571;28;20032;-52
2021/07/29 06:01:52;;;;;;;3.50;2.85;;;;;;;;;;5061615;28;20028;-55
2021/07/29 06:04:18;;;;;;;4.10;2.58;;;;;;;;;;5074644;28;20408;-53
2021/07/29 06:06:44;;;;;;;3.67;2.35;;;;;;;;;;5069840;28;20086;-52
2021/07/29 06:09:10;;;;;;;7.25;3.00;;;;;;;;;;5085498;28;20130;-54
2021/07/29 06:11:36;;;;;;;6.28;2.58;;;;;;;;;;5076508;28;20044;-53
2021/07/29 06:14:05;;;;;;;5.22;2.60;;;;;;;;;;5074100;28;20024;-54
2021/07/29 06:16:32;;;;;;;4.28;2.15;;;;;;;;;;5069074;28;20040;-51
2021/07/29 06:19:07;;;;;;;4.47;2.65;;;;;;;;;;5065169;28;20048;-49
2021/07/29 06:21:33;;;;;;;5.97;2.70;;;;;;;;;;5064118;28;20423;-50
2021/07/29 06:24:00;;;;;;;5.63;2.72;;;;;;;;;;5081248;28;20106;-51
2021/07/29 06:26:26;;;;;;;4.90;2.33;;;;;;;;;;5068669;28;20024;-49
2021/07/29 06:28:52;;;;;;;4.07;2.40;;;;;;;;;;5063423;28;20389;-51
2021/07/29 06:31:17;;;;;;;4.18;2.72;;;;;;;;;;5057293;28;20477;-50
2021/07/29 06:33:44;;;;;;;5.10;1.90;;;;;;;;;;5083700;28;20028;-51
2021/07/29 06:36:09;;;;;;;3.85;2.28;;;;;;;;;;5079155;28;20077;-51
2021/07/29 06:38:38;;;;;;;3.13;2.33;;;;;;;;;;5073092;28;20408;-55
2021/07/29 06:41:04;;;;;;;4.63;2.45;;;;;;;;;;5092520;28;20058;-56
2021/07/29 06:43:30;;;;;;;5.03;2.28;;;;;;;;;;5068196;28;20112;-54
2021/07/29 06:45:56;;;;;;;4.88;1.83;;;;;;;;;;5066323;28;20028;-54
2021/07/29 06:48:22;;;;;;;4.60;2.58;;;;;;;;;;5061193;28;20025;-54
2021/07/29 06:50:48;;;;;;;4.45;2.50;;;;;;;;;;5073161;28;20024;-53
2021/07/29 06:53:14;;;;;;;4.85;2.33;;;;;;;;;;5068521;28;20094;-51
2021/07/29 06:55:40;;;;;;;5.65;2.30;;;;;;;;;;5056818;28;20029;-54
2021/07/29 06:58:06;;;;;;;3.25;2.17;;;;;;;;;;5064044;28;20029;-49
2021/07/29 07:00:32;;;;;;;3.45;2.50;;;;;;;;;;5080844;28;20040;-49
2021/07/29 07:03:00;;;;;;;4.25;2.50;;;;;;;;;;5071588;28;20032;-52
2021/07/29 07:05:25;;;;;;;4.57;1.90;;;;;;;;;;5065824;28;20107;-50
2021/07/29 07:07:51;;;;;;;8.23;2.60;;;;;;;;;;5069290;28;20020;-52
2021/07/29 07:10:17;;;;;;;3.80;2.08;;;;;;;;;;5074545;28;20036;-53
2021/07/29 07:12:43;;;;;;;6.50;2.50;;;;;;;;;;5063175;28;20021;-51
2021/07/29 07:15:10;;;;;;;2.85;2.20;;;;;;;;;;5066657;28;20021;-55
2021/07/29 07:17:36;;;;;;;2.70;2.03;;;;;;;;;;5061189;28;20025;-51
2021/07/29 07:20:04;;;;;;;4.60;2.08;;;;;;;;;;5068172;28;20033;-51
2021/07/29 07:22:30;;;;;;;2.47;1.88;;;;;;;;;;5063820;28;20021;-55
2021/07/29 07:24:56;;;;;;;3.30;2.08;;;;;;;;;;5062157;28;20077;-50
2021/07/29 07:27:22;;;;;;;3.20;1.90;;;;;;;;;;5062841;28;20063;-50
2021/07/29 07:29:48;;;;;;;5.75;2.55;;;;;;;;;;5062282;28;20020;-50
2021/07/29 07:32:14;;;;;;;3.88;2.10;;;;;;;;;;5061991;28;20029;-53
2021/07/29 07:34:40;;;;;;;4.32;2.00;;;;;;;;;;5059928;28;20197;-49
2021/07/29 07:37:06;;;;;;;2.35;1.92;;;;;;;;;;5061947;28;20017;-51
2021/07/29 07:39:35;;;;;;;3.22;2.00;;;;;;;;;;5063934;28;20028;-50
2021/07/29 07:42:01;;;;;;;5.03;1.83;;;;;;;;;;5063612;28;20021;-50
2021/07/29 07:44:27;;;;;;;4.60;2.00;;;;;;;;;;5066004;28;20145;-49
2021/07/29 07:46:54;;;;;;;3.80;2.22;;;;;;;;;;5072215;28;20050;-50
2021/07/29 07:49:20;;;;;;;3.85;1.80;;;;;;;;;;5073677;28;20471;-50
2021/07/29 07:51:46;;;;;;;6.72;1.90;;;;;;;;;;5056101;28;20029;-51
2021/07/29 07:54:13;;;;;;;3.40;1.75;;;;;;;;;;5069926;28;20478;-56
2021/07/29 07:56:43;;;;;;;4.03;1.80;;;;;;;;;;5079679;28;20019;-55
2021/07/29 07:59:09;;;;;;;2.63;1.80;;;;;;;;;;5071281;28;20035;-51
2021/07/29 08:01:37;;;;;;;3.55;1.65;;;;;;;;;;5079476;28;20107;-50
2021/07/29 08:04:06;;;;;;;4.22;2.10;;;;;;;;;;5056459;28;20032;-50
2021/07/29 08:06:36;;;;;;;2.55;1.70;;;;;;;;;;5072901;28;20043;-52
2021/07/29 08:09:03;;;;;;;3.15;2.00;;;;;;;;;;5075204;28;20199;-50
2021/07/29 08:11:29;;;;;;;3.20;1.70;;;;;;;;;;5065991;28;20021;-52
2021/07/29 08:13:55;;;;;;;4.25;1.88;;;;;;;;;;5067652;28;20023;-51
2021/07/29 08:16:21;;;;;;;8.15;1.95;;;;;;;;;;5058872;28;20032;-52
2021/07/29 08:18:47;;;;;;;2.05;1.70;;;;;;;;;;5058516;28;20021;-49
2021/07/29 08:21:13;;;;;;;5.22;1.80;;;;;;;;;;5062267;28;20042;-49
2021/07/29 08:23:40;;;;;;;3.92;1.85;;;;;;;;;;5085243;28;20032;-52
2021/07/29 08:26:07;;;;;;;3.83;1.77;;;;;;;;;;5065040;28;20032;-50
2021/07/29 08:28:35;;;;;;;8.57;2.08;;;;;;;;;;5054859;28;20067;-50
2021/07/29 08:31:01;;;;;;;3.03;1.95;;;;;;;;;;5060808;28;20921;-54
2021/07/29 08:33:27;;;;;;;3.10;1.85;;;;;;;;;;5066295;28;20078;-50
2021/07/29 08:35:53;;;;;;;4.65;2.22;;;;;;;;;;5068134;28;20036;-50
2021/07/29 08:38:19;;;;;;;5.70;2.33;;;;;;;;;;5064046;28;20029;-54
2021/07/29 08:40:45;;;;;;;5.95;1.80;;;;;;;;;;5068940;28;20036;-50
2021/07/29 08:43:11;;;;;;;3.90;2.20;;;;;;;;;;5064940;28;20036;-50
2021/07/29 08:45:44;;;;;;;5.90;2.00;;;;;;;;;;5059954;28;20036;-50
2021/07/29 08:48:10;;;;;;;3.50;1.90;;;;;;;;;;5048824;28;20032;-50
2021/07/29 08:50:37;;;;;;;2.22;1.65;;;;;;;;;;5068251;28;20056;-52
2021/07/29 08:53:03;;;;;;;3.25;2.10;;;;;;;;;;5069561;28;20020;-49
2021/07/29 08:55:30;;;;;;;3.17;2.33;;;;;;;;;;5065497;28;20414;-51
2021/07/29 08:57:56;;;;;;;5.35;1.70;;;;;;;;;;5051591;28;20033;-50
2021/07/29 09:00:22;;;;;;;4.88;2.05;;;;;;;;;;5056750;28;20028;-50
2021/07/29 09:02:48;;;;;;;3.85;1.98;;;;;;;;;;5065986;28;20054;-50
2021/07/29 09:05:15;;;;;;;5.65;1.77;;;;;;;;;;5061752;28;20480;-51
2021/07/29 09:07:42;;;;;;;3.53;2.00;;;;;;;;;;5061050;28;20093;-50
2021/07/29 09:10:18;;;;;;;3.58;1.98;;;;;;;;;;5067611;28;20097;-51
2021/07/29 09:12:44;;;;;;;5.45;2.13;;;;;;;;;;5059557;28;20468;-51
2021/07/29 09:15:18;;;;;;;6.15;2.17;;;;;;;;;;5062627;28;20028;-50
2021/07/29 09:17:45;;;;;;;2.38;1.95;;;;;;;;;;5068819;28;20448;-54
2021/07/29 09:20:17;;;;;;;3.78;2.03;;;;;;;;;;5063847;28;20472;-51
2021/07/29 09:22:43;;;;;;;2.25;1.73;;;;;;;;;;5065749;28;20337;-50
2021/07/29 09:25:13;;;;;;;1.90;1.42;;;;;;;;;;5057431;28;20029;-50
2021/07/29 09:27:38;;;;;;;4.80;1.88;;;;;;;;;;5071965;28;20511;-49
2021/07/29 09:30:10;;;;;;;4.63;2.20;;;;;;;;;;5058732;28;20013;-50
2021/07/29 09:32:50;;;;;;;2.78;2.00;;;;;;;;;;5064644;28;20107;-51
2021/07/29 09:35:27;;;;;;;5.43;2.17;;;;;;;;;;5065946;28;20052;-52
2021/07/29 09:37:53;;;;;;;5.45;1.98;;;;;;;;;;5066684;28;20042;-51
2021/07/29 09:40:19;;;;;;;6.43;2.28;;;;;;;;;;5056454;28;20067;-53
2021/07/29 09:42:45;;;;;;;6.32;1.90;;;;;;;;;;5064991;28;20107;-55
2021/07/29 09:45:11;;;;;;;4.25;2.10;;;;;;;;;;5091736;28;20107;-51
2021/07/29 09:47:37;;;;;;;7.40;2.60;;;;;;;;;;5076676;28;20037;-50
2021/07/29 09:50:03;;;;;;;5.75;2.25;;;;;;;;;;5067216;28;20024;-53
2021/07/29 09:52:31;;;;;;;2.65;1.98;;;;;;;;;;5076825;28;20031;-51
2021/07/29 09:54:58;;;;;;;3.42;1.90;;;;;;;;;;5075908;28;20032;-50
2021/07/29 09:57:24;;;;;;;6.00;2.35;;;;;;;;;;5063942;28;20043;-51
2021/07/29 09:59:50;;;;;;;2.65;2.00;;;;;;;;;;5068274;28;20021;-56
2021/07/29 10:02:16;;;;;;;3.58;2.13;;;;;;;;;;5060757;28;20087;-52
2021/07/29 10:04:47;;;;;;;5.55;2.50;;;;;;;;;;5063224;28;20116;-51
2021/07/29 10:07:18;;;;;;;6.60;2.30;;;;;;;;;;5066310;28;20025;-51
2021/07/29 10:09:46;;;;;;;5.18;2.33;;;;;;;;;;5068540;28;20123;-49
2021/07/29 10:12:13;;;;;;;4.25;1.98;;;;;;;;;;5088323;28;20020;-51
2021/07/29 10:15:00;;;;;;;2.78;2.03;;;;;;;;;;5091398;28;20024;-52
2021/07/29 10:17:35;;;;;;;3.55;1.90;;;;;;;;;;5071773;28;20048;-52
2021/07/29 10:20:20;;;;;;;5.97;2.35;;;;;;;;;;5055698;28;20103;-52
2021/07/29 10:22:49;;;;;;;8.68;2.42;;;;;;;;;;5061531;28;20031;-52
2021/07/29 10:25:16;;;;;;;5.25;2.92;;;;;;;;;;5081365;28;20043;-53
2021/07/29 10:28:02;;;;;;;4.80;2.15;;;;;;;;;;5067033;28;20163;-53
2021/07/29 10:30:28;;;;;;;4.20;2.28;;;;;;;;;;5070604;28;20091;-55
2021/07/29 10:32:57;;;;;;;2.72;1.73;;;;;;;;;;5067138;28;20418;-51
2021/07/29 10:35:29;;;;;;;8.15;2.50;;;;;;;;;;5074091;28;20064;-51
2021/07/29 10:37:55;;;;;;;2.58;1.45;;;;;;;;;;5081098;28;20028;-51
2021/07/29 10:40:40;;;;;;;6.68;1.95;;;;;;;;;;5072051;28;20036;-49
2021/07/29 10:43:21;;;;;;;4.18;1.80;;;;;;;;;;5090306;28;20111;-51
2021/07/29 10:45:54;;;;;;;5.47;1.90;;;;;;;;;;5076532;28;20127;-50
2021/07/29 10:48:39;;;;;;;3.88;1.92;;;;;;;;;;5093099;28;20039;-50
2021/07/29 10:51:11;;;;;;;2.30;1.60;;;;;;;;;;5094789;28;20107;-50
2021/07/29 10:53:39;;;;;;;4.80;1.92;;;;;;;;;;5094868;28;20052;-50
2021/07/29 10:56:07;;;;;;;8.50;1.77;;;;;;;;;;5094755;28;20054;-50
2021/07/29 10:58:42;;;;;;;4.72;2.00;;;;;;;;;;5088869;28;20117;-53
2021/07/29 11:01:10;;;;;;;4.53;1.90;;;;;;;;;;5093986;28;20078;-50
2021/07/29 11:03:38;;;;;;;5.50;2.20;;;;;;;;;;5063924;28;20046;-53
2021/07/29 11:06:06;;;;;;;4.72;2.05;;;;;;;;;;5092621;28;20153;-50
2021/07/29 11:08:32;;;;;;;3.38;1.80;;;;;;;;;;5093994;28;20107;-50
2021/07/29 11:11:01;;;;;;;5.88;1.95;;;;;;;;;;5068908;28;20082;-49
2021/07/29 11:13:28;;;;;;;7.90;1.98;;;;;;;;;;5080233;28;20028;-51
2021/07/29 11:15:55;;;;;;;2.70;1.83;;;;;;;;;;5086407;28;20025;-50
2021/07/29 11:18:21;;;;;;;2.53;1.60;;;;;;;;;;5080510;28;20062;-52
2021/07/29 11:20:48;;;;;;;2.55;1.58;;;;;;;;;;5094328;28;20162;-54
2021/07/29 11:23:14;;;;;;;2.97;1.52;;;;;;;;;;5093897;28;20032;-52
2021/07/29 11:25:56;;;;;;;5.97;1.70;;;;;;;;;;5094013;28;20076;-56
2021/07/29 11:28:22;;;;;;;2.67;1.65;;;;;;;;;;5091110;28;20032;-53
2021/07/29 11:30:48;;;;;;;4.80;1.45;;;;;;;;;;5065499;28;20021;-51
2021/07/29 11:33:21;;;;;;;5.63;1.25;;;;;;;;;;5082332;28;20059;-53
2021/07/29 11:35:47;;;;;;;2.17;1.23;;;;;;;;;;5090576;28;20020;-50
2021/07/29 11:38:20;;;;;;;1.98;1.20;;;;;;;;;;5085145;28;20425;-51
2021/07/29 11:40:46;;;;;;;2.35;1.35;;;;;;;;;;5074771;28;20500;-50
2021/07/29 11:43:26;;;;;;;3.13;1.02;;;;;;;;;;5079927;28;20028;-51
2021/07/29 11:45:52;;;;;;;2.08;1.20;;;;;;;;;;5077275;28;20232;-51
2021/07/29 11:48:22;;;;;;;1.45;0.98;;;;;;;;;;5077729;28;20039;-49
2021/07/29 11:50:49;;;;;;;3.17;1.52;;;;;;;;;;5093451;28;20052;-51
2021/07/29 11:53:15;;;;;;;2.22;1.10;;;;;;;;;;5079251;28;20047;-51
2021/07/29 11:55:51;;;;;;;2.80;1.10;;;;;;;;;;5093434;28;20020;-49
2021/07/29 11:58:18;;;;;;;4.18;1.00;;;;;;;;;;5087140;28;20028;-49
2021/07/29 12:00:48;;;;;;;2.63;1.15;;;;;;;;;;5075499;28;20039;-49
2021/07/29 12:03:32;;;;;;;6.03;1.05;;;;;;;;;;5073597;28;20036;-50
2021/07/29 12:05:59;;;;;;;6.82;1.58;;;;;;;;;;5093371;28;20547;-49
2021/07/29 12:08:26;;;;;;;2.78;1.17;;;;;;;;;;5092852;28;20026;-50
2021/07/29 12:10:53;;;;;;;1.95;1.10;;;;;;;;;;5086157;28;20123;-50
2021/07/29 12:13:20;;;;;;;1.40;0.90;;;;;;;;;;5062733;28;20033;-54
2021/07/29 12:15:50;;;;;;;3.50;1.27;;;;;;;;;;5062562;28;20024;-51
2021/07/29 12:18:16;;;;;;;2.30;1.00;;;;;;;;;;5092555;28;20024;-50
2021/07/29 12:20:43;;;;;;;5.35;1.27;;;;;;;;;;5092902;28;20055;-50
2021/07/29 12:23:11;;;;;;;1.83;1.10;;;;;;;;;;5091383;28;20031;-52
2021/07/29 12:25:37;;;;;;;3.58;1.23;;;;;;;;;;5092689;28;20085;-53
2021/07/29 12:28:03;;;;;;;4.25;1.50;;;;;;;;;;5092193;28;20030;-49
2021/07/29 12:30:41;;;;;;;9.55;1.35;;;;;;;;;;5081694;28;20021;-50
2021/07/29 12:33:18;;;;;;;3.10;1.00;;;;;;;;;;5056353;28;20021;-49
2021/07/29 12:36:04;;;;;;;1.75;1.00;;;;;;;;;;5054447;28;20120;-50
2021/07/29 12:38:34;;;;;;;2.47;1.00;;;;;;;;;;5054583;28;20166;-50
2021/07/29 12:41:00;;;;;;;5.20;1.15;;;;;;;;;;5079348;28;20032;-51
2021/07/29 12:43:27;;;;;;;2.00;1.15;;;;;;;;;;5068392;28;20024;-51
2021/07/29 12:45:55;;;;;;;1.75;1.20;;;;;;;;;;5066816;28;20045;-50
2021/07/29 12:48:22;;;;;;;1.77;0.98;;;;;;;;;;5059721;28;20033;-49
2021/07/29 12:50:48;;;;;;;2.53;1.30;;;;;;;;;;5071058;28;20033;-50
2021/07/29 12:53:15;;;;;;;8.52;1.20;;;;;;;;;;5091978;28;20030;-49
2021/07/29 12:55:42;;;;;;;4.82;1.50;;;;;;;;;;5070341;28;20050;-53
2021/07/29 12:58:08;;;;;;;1.95;1.10;;;;;;;;;;5068521;28;20033;-52
2021/07/29 13:00:38;;;;;;;1.85;1.05;;;;;;;;;;5064135;28;20454;-50
2021/07/29 13:03:15;;;;;;;3.65;1.27;;;;;;;;;;5074668;28;20036;-52
2021/07/29 13:05:41;;;;;;;2.28;1.30;;;;;;;;;;5079377;28;20036;-50
2021/07/29 13:08:07;;;;;;;2.42;1.05;;;;;;;;;;5079245;28;20040;-51
2021/07/29 13:10:33;;;;;;;2.55;1.20;;;;;;;;;;5073208;28;20056;-53
2021/07/29 13:12:59;;;;;;;2.90;1.30;;;;;;;;;;5062585;28;20542;-50
2021/07/29 13:15:27;;;;;;;2.33;0.90;;;;;;;;;;5067501;28;20483;-52
2021/07/29 13:17:53;;;;;;;1.98;1.08;;;;;;;;;;5055904;28;20032;-56
2021/07/29 13:20:19;;;;;;;2.08;1.10;;;;;;;;;;5063749;28;20036;-51
2021/07/29 13:22:46;;;;;;;3.42;1.05;;;;;;;;;;5063920;28;20071;-51
2021/07/29 13:25:12;;;;;;;2.45;1.35;;;;;;;;;;5077486;28;20111;-52
2021/07/29 13:27:38;;;;;;;2.58;1.17;;;;;;;;;;5090339;28;20028;-50
2021/07/29 13:30:04;;;;;;;4.43;1.13;;;;;;;;;;5056147;28;20037;-52
2021/07/29 13:32:30;;;;;;;4.93;1.27;;;;;;;;;;5068233;28;20059;-55
2021/07/29 13:34:56;;;;;;;4.90;1.10;;;;;;;;;;5054566;28;20033;-50
2021/07/29 13:37:22;;;;;;;1.42;1.00;;;;;;;;;;5058500;28;20033;-51
2021/07/29 13:39:48;;;;;;;3.85;1.02;;;;;;;;;;5060944;28;20021;-51
2021/07/29 13:42:14;;;;;;;2.78;0.82;;;;;;;;;;5063880;28;20024;-55
2021/07/29 13:44:51;;;;;;;3.20;0.95;;;;;;;;;;5074559;28;20035;-52
2021/07/29 13:47:17;;;;;;;3.42;1.30;;;;;;;;;;5054789;28;20044;-54
2021/07/29 13:49:43;;;;;;;1.95;1.00;;;;;;;;;;5070493;28;20031;-54
2021/07/29 13:52:09;;;;;;;10.18;1.30;;;;;;;;;;5065607;28;20378;-54
2021/07/29 13:54:35;;;;;;;4.78;0.80;;;;;;;;;;5065877;28;20087;-57
2021/07/29 13:57:01;;;;;;;4.35;1.10;;;;;;;;;;5063321;28;20025;-55
2021/07/29 13:59:27;;;;;;;2.72;0.93;;;;;;;;;;5060857;28;20084;-55
2021/07/29 14:01:53;;;;;;;5.20;1.00;;;;;;;;;;5062222;28;20075;-50
2021/07/29 14:04:19;;;;;;;3.13;1.00;;;;;;;;;;5065847;28;20438;-56
2021/07/29 14:06:45;;;;;;;3.28;1.40;;;;;;;;;;5072731;28;20037;-50
2021/07/29 14:09:11;;;;;;;1.83;1.10;;;;;;;;;;5071906;28;20123;-53
2021/07/29 14:11:39;;;;;;;4.05;1.10;;;;;;;;;;5067438;28;20025;-50
2021/07/29 14:14:05;;;;;;;2.83;1.05;;;;;;;;;;5071226;28;20162;-53
2021/07/29 14:16:31;;;;;;;1.70;0.90;;;;;;;;;;5076400;28;20472;-53
2021/07/29 14:19:02;;;;;;;2.15;1.08;;;;;;;;;;5054710;28;20400;-50
2021/07/29 14:21:33;;;;;;;4.05;0.90;;;;;;;;;;5076331;28;20028;-55
2021/07/29 14:23:59;;;;;;;2.15;0.88;;;;;;;;;;5078018;28;20037;-52
2021/07/29 14:26:25;;;;;;;3.47;1.00;;;;;;;;;;5084059;28;20035;-51
2021/07/29 14:28:51;;;;;;;2.63;0.90;;;;;;;;;;5063100;28;20020;-55
2021/07/29 14:31:17;;;;;;;3.20;0.82;;;;;;;;;;5074799;28;20023;-57
2021/07/29 14:33:43;;;;;;;2.33;0.60;;;;;;;;;;5063340;28;20083;-53
2021/07/29 14:36:09;;;;;;;2.00;0.70;;;;;;;;;;5071269;28;20361;-55
2021/07/29 14:38:35;;;;;;;2.58;0.90;;;;;;;;;;5063335;28;20021;-56
2021/07/29 14:41:01;;;;;;;3.72;0.80;;;;;;;;;;5066749;28;20086;-54
2021/07/29 14:43:29;;;;;;;2.78;0.95;;;;;;;;;;5078046;28;20410;-52
2021/07/29 14:48:37;;;;;;;1.38;0.75;;;;;;;;;;5077154;28;20024;-57